sensor_id;sensor_type;location;lat;lon;timestamp;temperature;humidity
19307;DHT22;9788;48.194;16.318;2024-01-06T00:01:12;4.20;99.90
19307;DHT22;9788;48.194;16.318;2024-01-06T00:03:58;4.20;99.90
19307;DHT22;9788;48.194;16.318;2024-01-06T00:06:32;4.30;99.90
19307;DHT22;9788;48.194;16.318;2024-01-06T00:09:11;4.30;99.90
19307;DHT22;9788;48.194;16.318;2024-01-06T00:11:44;4.40;99.90
19307;DHT22;9788;48.194;16.318;2024-01-06T00:14:13;4.50;99.90
19307;DHT22;9788;48.194;16.318;2024-01-06T00:16:47;4.50;99.90
19307;DHT22;9788;48.194;16.318;2024-01-06T00:19:23;4.40;99.90
19307;DHT22;9788;48.194;16.318;2024-01-06T00:22:02;4.30;99.90
19307;DHT22;9788;48.194;16.318;2024-01-06T00:24:35;4.30;99.90
19307;DHT22;9788;48.194;16.318;2024-01-06T00:27:06;4.30;99.90
19307;DHT22;9788;48.194;16.318;2024-01-06T00:29:36;4.30;99.90
19307;DHT22;9788;48.194;16.318;2024-01-06T00:32:12;4.20;99.90
19307;DHT22;9788;48.194;16.318;2024-01-06T00:34:46;4.20;99.90
19307;DHT22;9788;48.194;16.318;2024-01-06T00:37:17;4.20;99.90
19307;DHT22;9788;48.194;16.318;2024-01-06T00:39:59;4.30;99.90
19307;DHT22;9788;48.194;16.318;2024-01-06T00:42:28;4.30;99.90
19307;DHT22;9788;48.194;16.318;2024-01-06T00:44:59;4.30;99.90
19307;DHT22;9788;48.194;16.318;2024-01-06T00:47:30;4.40;99.90
19307;DHT22;9788;48.194;16.318;2024-01-06T00:50:03;4.40;99.90
19307;DHT22;9788;48.194;16.318;2024-01-06T00:52:32;4.50;99.90
19307;DHT22;9788;48.194;16.318;2024-01-06T00:55:01;4.50;99.90
19307;DHT22;9788;48.194;16.318;2024-01-06T00:57:34;4.50;99.90
19307;DHT22;9788;48.194;16.318;2024-01-06T01:00:06;4.50;99.90
19307;DHT22;9788;48.194;16.318;2024-01-06T01:02:37;4.50;99.90
19307;DHT22;9788;48.194;16.318;2024-01-06T01:05:11;4.50;99.90
19307;DHT22;9788;48.194;16.318;2024-01-06T01:07:39;4.40;99.90
19307;DHT22;9788;48.194;16.318;2024-01-06T01:10:09;4.30;99.90
19307;DHT22;9788;48.194;16.318;2024-01-06T01:12:40;4.30;99.90
19307;DHT22;9788;48.194;16.318;2024-01-06T01:15:09;4.20;99.90
19307;DHT22;9788;48.194;16.318;2024-01-06T01:17:38;4.30;99.90
19307;DHT22;9788;48.194;16.318;2024-01-06T01:20:09;4.30;99.90
19307;DHT22;9788;48.194;16.318;2024-01-06T01:22:37;4.30;99.90
19307;DHT22;9788;48.194;16.318;2024-01-06T01:25:06;4.40;99.90
19307;DHT22;9788;48.194;16.318;2024-01-06T01:27:35;4.40;99.90
19307;DHT22;9788;48.194;16.318;2024-01-06T01:30:05;4.40;99.90
19307;DHT22;9788;48.194;16.318;2024-01-06T01:32:36;4.40;99.90
19307;DHT22;9788;48.194;16.318;2024-01-06T01:35:11;4.30;99.90
19307;DHT22;9788;48.194;16.318;2024-01-06T01:37:39;4.40;99.90
19307;DHT22;9788;48.194;16.318;2024-01-06T01:40:10;4.40;99.90
19307;DHT22;9788;48.194;16.318;2024-01-06T01:42:43;4.40;99.90
19307;DHT22;9788;48.194;16.318;2024-01-06T01:45:11;4.40;99.90
19307;DHT22;9788;48.194;16.318;2024-01-06T01:47:41;4.50;99.90
19307;DHT22;9788;48.194;16.318;2024-01-06T01:50:19;4.50;99.90
19307;DHT22;9788;48.194;16.318;2024-01-06T01:52:55;4.60;99.90
19307;DHT22;9788;48.194;16.318;2024-01-06T01:55:24;4.60;99.90
19307;DHT22;9788;48.194;16.318;2024-01-06T01:57:56;4.60;99.90
19307;DHT22;9788;48.194;16.318;2024-01-06T02:00:30;4.60;99.90
19307;DHT22;9788;48.194;16.318;2024-01-06T02:02:59;4.70;99.90
19307;DHT22;9788;48.194;16.318;2024-01-06T02:05:30;4.60;99.90
19307;DHT22;9788;48.194;16.318;2024-01-06T02:07:59;4.60;99.90
19307;DHT22;9788;48.194;16.318;2024-01-06T02:10:30;4.60;99.90
19307;DHT22;9788;48.194;16.318;2024-01-06T02:13:08;4.60;99.90
19307;DHT22;9788;48.194;16.318;2024-01-06T02:15:36;4.60;99.90
19307;DHT22;9788;48.194;16.318;2024-01-06T02:18:05;4.60;99.90
19307;DHT22;9788;48.194;16.318;2024-01-06T02:20:39;4.60;99.90
19307;DHT22;9788;48.194;16.318;2024-01-06T02:23:12;4.60;99.90
19307;DHT22;9788;48.194;16.318;2024-01-06T02:25:40;4.60;99.90
19307;DHT22;9788;48.194;16.318;2024-01-06T02:28:08;4.60;99.90
19307;DHT22;9788;48.194;16.318;2024-01-06T02:30:38;4.60;99.90
19307;DHT22;9788;48.194;16.318;2024-01-06T02:33:08;4.60;99.90
19307;DHT22;9788;48.194;16.318;2024-01-06T02:35:37;4.60;99.90
19307;DHT22;9788;48.194;16.318;2024-01-06T02:38:07;4.50;99.90
19307;DHT22;9788;48.194;16.318;2024-01-06T02:40:36;4.50;99.90
19307;DHT22;9788;48.194;16.318;2024-01-06T02:43:05;4.50;99.90
19307;DHT22;9788;48.194;16.318;2024-01-06T02:45:36;4.50;99.90
19307;DHT22;9788;48.194;16.318;2024-01-06T02:48:04;4.50;99.90
19307;DHT22;9788;48.194;16.318;2024-01-06T02:50:33;4.50;99.90
19307;DHT22;9788;48.194;16.318;2024-01-06T02:53:01;4.50;99.90
19307;DHT22;9788;48.194;16.318;2024-01-06T02:55:30;4.60;99.90
19307;DHT22;9788;48.194;16.318;2024-01-06T02:57:59;4.60;99.90
19307;DHT22;9788;48.194;16.318;2024-01-06T03:00:27;4.50;99.90
19307;DHT22;9788;48.194;16.318;2024-01-06T03:02:56;4.50;99.90
19307;DHT22;9788;48.194;16.318;2024-01-06T03:05:24;4.60;99.90
19307;DHT22;9788;48.194;16.318;2024-01-06T03:07:52;4.60;99.90
19307;DHT22;9788;48.194;16.318;2024-01-06T03:10:20;4.60;99.90
19307;DHT22;9788;48.194;16.318;2024-01-06T03:12:48;4.70;99.90
19307;DHT22;9788;48.194;16.318;2024-01-06T03:15:18;4.70;99.90
19307;DHT22;9788;48.194;16.318;2024-01-06T03:17:46;4.70;99.90
19307;DHT22;9788;48.194;16.318;2024-01-06T03:20:15;4.70;99.90
19307;DHT22;9788;48.194;16.318;2024-01-06T03:22:43;4.70;99.90
19307;DHT22;9788;48.194;16.318;2024-01-06T03:25:12;4.70;99.90
19307;DHT22;9788;48.194;16.318;2024-01-06T03:27:40;4.70;99.90
19307;DHT22;9788;48.194;16.318;2024-01-06T03:30:12;4.70;99.90
19307;DHT22;9788;48.194;16.318;2024-01-06T03:32:42;4.70;99.90
19307;DHT22;9788;48.194;16.318;2024-01-06T03:35:11;4.70;99.90
19307;DHT22;9788;48.194;16.318;2024-01-06T03:37:39;4.70;99.90
19307;DHT22;9788;48.194;16.318;2024-01-06T03:40:08;4.70;99.90
19307;DHT22;9788;48.194;16.318;2024-01-06T03:42:38;4.60;99.90
19307;DHT22;9788;48.194;16.318;2024-01-06T03:45:07;4.60;99.90
19307;DHT22;9788;48.194;16.318;2024-01-06T03:47:35;4.60;99.90
19307;DHT22;9788;48.194;16.318;2024-01-06T03:50:05;4.60;99.90
19307;DHT22;9788;48.194;16.318;2024-01-06T03:52:36;4.60;99.90
19307;DHT22;9788;48.194;16.318;2024-01-06T03:55:05;4.60;99.90
19307;DHT22;9788;48.194;16.318;2024-01-06T03:57:34;4.60;99.90
19307;DHT22;9788;48.194;16.318;2024-01-06T04:00:03;4.60;99.90
19307;DHT22;9788;48.194;16.318;2024-01-06T04:02:31;4.60;99.90
19307;DHT22;9788;48.194;16.318;2024-01-06T04:05:00;4.60;99.90
19307;DHT22;9788;48.194;16.318;2024-01-06T04:07:29;4.60;99.90
19307;DHT22;9788;48.194;16.318;2024-01-06T04:09:58;4.60;99.90
19307;DHT22;9788;48.194;16.318;2024-01-06T04:12:26;4.50;99.90
19307;DHT22;9788;48.194;16.318;2024-01-06T04:14:55;4.50;99.90
19307;DHT22;9788;48.194;16.318;2024-01-06T04:17:23;4.50;99.90
19307;DHT22;9788;48.194;16.318;2024-01-06T04:19:53;4.50;99.90
19307;DHT22;9788;48.194;16.318;2024-01-06T04:22:21;4.50;99.90
19307;DHT22;9788;48.194;16.318;2024-01-06T04:24:51;4.50;99.90
19307;DHT22;9788;48.194;16.318;2024-01-06T04:27:19;4.40;99.90
19307;DHT22;9788;48.194;16.318;2024-01-06T04:29:47;4.40;99.90
19307;DHT22;9788;48.194;16.318;2024-01-06T04:32:19;4.30;99.90
19307;DHT22;9788;48.194;16.318;2024-01-06T04:34:48;4.30;99.90
19307;DHT22;9788;48.194;16.318;2024-01-06T04:37:16;4.30;99.90
19307;DHT22;9788;48.194;16.318;2024-01-06T04:39:44;4.20;99.90
19307;DHT22;9788;48.194;16.318;2024-01-06T04:42:14;4.20;99.90
19307;DHT22;9788;48.194;16.318;2024-01-06T04:44:42;4.20;99.90
19307;DHT22;9788;48.194;16.318;2024-01-06T04:47:10;4.20;99.90
19307;DHT22;9788;48.194;16.318;2024-01-06T04:49:38;4.20;99.90
19307;DHT22;9788;48.194;16.318;2024-01-06T04:52:06;4.10;99.90
19307;DHT22;9788;48.194;16.318;2024-01-06T04:54:35;4.10;99.90
19307;DHT22;9788;48.194;16.318;2024-01-06T04:57:03;4.10;99.90
19307;DHT22;9788;48.194;16.318;2024-01-06T04:59:33;4.00;99.90
19307;DHT22;9788;48.194;16.318;2024-01-06T05:02:02;4.00;99.90
19307;DHT22;9788;48.194;16.318;2024-01-06T05:04:31;4.00;99.90
19307;DHT22;9788;48.194;16.318;2024-01-06T05:06:59;4.00;99.90
19307;DHT22;9788;48.194;16.318;2024-01-06T05:09:30;3.90;99.90
19307;DHT22;9788;48.194;16.318;2024-01-06T05:11:58;3.90;99.90
19307;DHT22;9788;48.194;16.318;2024-01-06T05:14:27;4.00;99.90
19307;DHT22;9788;48.194;16.318;2024-01-06T05:16:56;3.90;99.90
19307;DHT22;9788;48.194;16.318;2024-01-06T05:19:24;4.00;99.90
19307;DHT22;9788;48.194;16.318;2024-01-06T05:21:53;4.00;99.90
19307;DHT22;9788;48.194;16.318;2024-01-06T05:24:24;3.90;99.90
19307;DHT22;9788;48.194;16.318;2024-01-06T05:26:52;3.90;99.90
19307;DHT22;9788;48.194;16.318;2024-01-06T05:29:21;3.90;99.90
19307;DHT22;9788;48.194;16.318;2024-01-06T05:31:49;3.90;99.90
19307;DHT22;9788;48.194;16.318;2024-01-06T05:34:19;4.00;99.90
19307;DHT22;9788;48.194;16.318;2024-01-06T05:36:47;4.00;99.90
19307;DHT22;9788;48.194;16.318;2024-01-06T05:39:16;4.00;99.90
19307;DHT22;9788;48.194;16.318;2024-01-06T05:41:44;4.00;99.90
19307;DHT22;9788;48.194;16.318;2024-01-06T05:44:12;4.00;99.90
19307;DHT22;9788;48.194;16.318;2024-01-06T05:46:42;4.00;99.90
19307;DHT22;9788;48.194;16.318;2024-01-06T05:49:10;3.90;99.90
19307;DHT22;9788;48.194;16.318;2024-01-06T05:51:45;3.90;99.90
19307;DHT22;9788;48.194;16.318;2024-01-06T05:54:13;3.90;99.90
19307;DHT22;9788;48.194;16.318;2024-01-06T05:56:42;4.00;99.90
19307;DHT22;9788;48.194;16.318;2024-01-06T05:59:10;4.00;99.90
19307;DHT22;9788;48.194;16.318;2024-01-06T06:01:38;4.00;99.90
19307;DHT22;9788;48.194;16.318;2024-01-06T06:04:07;4.00;99.90
19307;DHT22;9788;48.194;16.318;2024-01-06T06:06:36;4.00;99.90
19307;DHT22;9788;48.194;16.318;2024-01-06T06:09:06;4.00;99.90
19307;DHT22;9788;48.194;16.318;2024-01-06T06:11:37;4.00;99.90
19307;DHT22;9788;48.194;16.318;2024-01-06T06:14:05;4.00;99.90
19307;DHT22;9788;48.194;16.318;2024-01-06T06:16:33;4.00;99.90
19307;DHT22;9788;48.194;16.318;2024-01-06T06:19:02;4.00;99.90
19307;DHT22;9788;48.194;16.318;2024-01-06T06:21:30;4.00;99.90
19307;DHT22;9788;48.194;16.318;2024-01-06T06:23:59;4.00;99.90
19307;DHT22;9788;48.194;16.318;2024-01-06T06:26:29;4.00;99.90
19307;DHT22;9788;48.194;16.318;2024-01-06T06:28:59;4.00;99.90
19307;DHT22;9788;48.194;16.318;2024-01-06T06:31:29;4.00;99.90
19307;DHT22;9788;48.194;16.318;2024-01-06T06:33:57;4.00;99.90
19307;DHT22;9788;48.194;16.318;2024-01-06T06:36:29;4.00;99.90
19307;DHT22;9788;48.194;16.318;2024-01-06T06:38:57;4.00;99.90
19307;DHT22;9788;48.194;16.318;2024-01-06T06:41:28;4.10;99.90
19307;DHT22;9788;48.194;16.318;2024-01-06T06:43:57;4.10;99.90
19307;DHT22;9788;48.194;16.318;2024-01-06T06:46:26;4.10;99.90
19307;DHT22;9788;48.194;16.318;2024-01-06T06:48:55;4.10;99.90
19307;DHT22;9788;48.194;16.318;2024-01-06T06:51:23;4.10;99.90
19307;DHT22;9788;48.194;16.318;2024-01-06T06:53:54;4.10;99.90
19307;DHT22;9788;48.194;16.318;2024-01-06T06:56:22;4.00;99.90
19307;DHT22;9788;48.194;16.318;2024-01-06T06:58:52;4.10;99.90
19307;DHT22;9788;48.194;16.318;2024-01-06T07:01:20;4.00;99.90
19307;DHT22;9788;48.194;16.318;2024-01-06T07:03:49;4.10;99.90
19307;DHT22;9788;48.194;16.318;2024-01-06T07:06:17;4.10;99.90
19307;DHT22;9788;48.194;16.318;2024-01-06T07:08:45;4.00;99.90
19307;DHT22;9788;48.194;16.318;2024-01-06T07:11:14;4.00;99.90
19307;DHT22;9788;48.194;16.318;2024-01-06T07:13:45;4.00;99.90
19307;DHT22;9788;48.194;16.318;2024-01-06T07:16:16;4.00;99.90
19307;DHT22;9788;48.194;16.318;2024-01-06T07:18:46;4.00;99.90
19307;DHT22;9788;48.194;16.318;2024-01-06T07:21:14;4.00;99.90
19307;DHT22;9788;48.194;16.318;2024-01-06T07:23:42;4.00;99.90
19307;DHT22;9788;48.194;16.318;2024-01-06T07:26:11;4.10;99.90
19307;DHT22;9788;48.194;16.318;2024-01-06T07:28:39;4.00;99.90
19307;DHT22;9788;48.194;16.318;2024-01-06T07:31:07;4.00;99.90
19307;DHT22;9788;48.194;16.318;2024-01-06T07:33:40;4.10;99.90
19307;DHT22;9788;48.194;16.318;2024-01-06T07:36:08;4.10;99.90
19307;DHT22;9788;48.194;16.318;2024-01-06T07:38:37;4.10;99.90
19307;DHT22;9788;48.194;16.318;2024-01-06T07:41:06;4.10;99.90
19307;DHT22;9788;48.194;16.318;2024-01-06T07:43:37;4.10;99.90
19307;DHT22;9788;48.194;16.318;2024-01-06T07:46:05;4.00;99.90
19307;DHT22;9788;48.194;16.318;2024-01-06T07:48:34;4.00;99.90
19307;DHT22;9788;48.194;16.318;2024-01-06T07:51:04;4.00;99.90
19307;DHT22;9788;48.194;16.318;2024-01-06T07:53:33;4.00;99.90
19307;DHT22;9788;48.194;16.318;2024-01-06T07:56:01;4.00;99.90
19307;DHT22;9788;48.194;16.318;2024-01-06T07:58:29;4.00;99.90
19307;DHT22;9788;48.194;16.318;2024-01-06T08:01:00;4.00;99.90
19307;DHT22;9788;48.194;16.318;2024-01-06T08:03:28;4.00;99.90
19307;DHT22;9788;48.194;16.318;2024-01-06T08:05:58;4.00;99.90
19307;DHT22;9788;48.194;16.318;2024-01-06T08:08:31;4.00;99.90
19307;DHT22;9788;48.194;16.318;2024-01-06T08:10:59;4.00;99.90
19307;DHT22;9788;48.194;16.318;2024-01-06T08:13:28;4.00;99.90
19307;DHT22;9788;48.194;16.318;2024-01-06T08:15:58;4.00;99.90
19307;DHT22;9788;48.194;16.318;2024-01-06T08:18:28;4.00;99.90
19307;DHT22;9788;48.194;16.318;2024-01-06T08:20:57;4.00;99.90
19307;DHT22;9788;48.194;16.318;2024-01-06T08:23:25;4.00;99.90
19307;DHT22;9788;48.194;16.318;2024-01-06T08:25:56;4.00;99.90
19307;DHT22;9788;48.194;16.318;2024-01-06T08:28:25;4.00;99.90
19307;DHT22;9788;48.194;16.318;2024-01-06T08:30:55;3.90;99.90
19307;DHT22;9788;48.194;16.318;2024-01-06T08:33:27;3.80;99.90
19307;DHT22;9788;48.194;16.318;2024-01-06T08:35:55;3.90;99.90
19307;DHT22;9788;48.194;16.318;2024-01-06T08:38:24;3.90;99.90
19307;DHT22;9788;48.194;16.318;2024-01-06T08:40:52;3.90;99.90
19307;DHT22;9788;48.194;16.318;2024-01-06T08:43:22;3.90;99.90
19307;DHT22;9788;48.194;16.318;2024-01-06T08:45:53;4.00;99.90
19307;DHT22;9788;48.194;16.318;2024-01-06T08:48:21;3.90;99.90
19307;DHT22;9788;48.194;16.318;2024-01-06T08:50:51;3.90;99.90
19307;DHT22;9788;48.194;16.318;2024-01-06T08:53:20;3.90;99.90
19307;DHT22;9788;48.194;16.318;2024-01-06T08:55:57;3.90;99.90
19307;DHT22;9788;48.194;16.318;2024-01-06T08:58:31;3.90;99.90
19307;DHT22;9788;48.194;16.318;2024-01-06T09:01:07;3.90;99.90
19307;DHT22;9788;48.194;16.318;2024-01-06T09:03:41;4.00;99.90
19307;DHT22;9788;48.194;16.318;2024-01-06T09:06:15;4.00;99.90
19307;DHT22;9788;48.194;16.318;2024-01-06T09:09:05;4.00;99.90
19307;DHT22;9788;48.194;16.318;2024-01-06T09:11:35;4.00;99.90
19307;DHT22;9788;48.194;16.318;2024-01-06T09:14:05;4.00;99.90
19307;DHT22;9788;48.194;16.318;2024-01-06T09:16:34;4.10;99.90
19307;DHT22;9788;48.194;16.318;2024-01-06T09:19:04;4.10;99.90
19307;DHT22;9788;48.194;16.318;2024-01-06T09:21:33;4.10;99.90
19307;DHT22;9788;48.194;16.318;2024-01-06T09:24:04;4.10;99.90
19307;DHT22;9788;48.194;16.318;2024-01-06T09:26:37;4.00;99.90
19307;DHT22;9788;48.194;16.318;2024-01-06T09:29:09;4.00;99.90
19307;DHT22;9788;48.194;16.318;2024-01-06T09:31:39;4.10;99.90
19307;DHT22;9788;48.194;16.318;2024-01-06T09:34:09;4.00;99.90
19307;DHT22;9788;48.194;16.318;2024-01-06T09:36:41;4.10;99.90
19307;DHT22;9788;48.194;16.318;2024-01-06T09:39:27;4.10;99.90
19307;DHT22;9788;48.194;16.318;2024-01-06T09:41:57;4.10;99.90
19307;DHT22;9788;48.194;16.318;2024-01-06T09:44:34;4.10;99.90
19307;DHT22;9788;48.194;16.318;2024-01-06T09:47:04;4.10;99.90
19307;DHT22;9788;48.194;16.318;2024-01-06T09:49:35;4.10;99.90
19307;DHT22;9788;48.194;16.318;2024-01-06T09:52:14;4.10;99.90
19307;DHT22;9788;48.194;16.318;2024-01-06T09:54:54;4.20;99.90
19307;DHT22;9788;48.194;16.318;2024-01-06T09:57:34;4.20;99.90
19307;DHT22;9788;48.194;16.318;2024-01-06T10:00:34;4.20;99.90
19307;DHT22;9788;48.194;16.318;2024-01-06T10:03:21;4.10;99.90
19307;DHT22;9788;48.194;16.318;2024-01-06T10:05:55;4.10;99.90
19307;DHT22;9788;48.194;16.318;2024-01-06T10:08:35;4.10;99.90
19307;DHT22;9788;48.194;16.318;2024-01-06T10:11:07;4.10;99.90
19307;DHT22;9788;48.194;16.318;2024-01-06T10:13:36;4.10;99.90
19307;DHT22;9788;48.194;16.318;2024-01-06T10:16:08;4.10;99.90
19307;DHT22;9788;48.194;16.318;2024-01-06T10:18:39;4.10;99.90
19307;DHT22;9788;48.194;16.318;2024-01-06T10:21:08;4.20;99.90
19307;DHT22;9788;48.194;16.318;2024-01-06T10:23:45;4.20;99.90
19307;DHT22;9788;48.194;16.318;2024-01-06T10:26:16;4.20;99.90
19307;DHT22;9788;48.194;16.318;2024-01-06T10:28:51;4.30;99.90
19307;DHT22;9788;48.194;16.318;2024-01-06T10:31:31;4.30;99.90
19307;DHT22;9788;48.194;16.318;2024-01-06T10:34:03;4.40;99.90
19307;DHT22;9788;48.194;16.318;2024-01-06T10:36:48;4.40;99.90
19307;DHT22;9788;48.194;16.318;2024-01-06T10:39:26;4.40;99.90
19307;DHT22;9788;48.194;16.318;2024-01-06T10:41:57;4.40;99.90
19307;DHT22;9788;48.194;16.318;2024-01-06T10:44:26;4.30;99.90
19307;DHT22;9788;48.194;16.318;2024-01-06T10:47:03;4.30;99.90
19307;DHT22;9788;48.194;16.318;2024-01-06T10:49:33;4.30;99.90
19307;DHT22;9788;48.194;16.318;2024-01-06T10:52:05;4.30;99.90
19307;DHT22;9788;48.194;16.318;2024-01-06T10:54:36;4.40;99.90
19307;DHT22;9788;48.194;16.318;2024-01-06T10:57:08;4.40;99.90
19307;DHT22;9788;48.194;16.318;2024-01-06T10:59:37;4.40;99.90
19307;DHT22;9788;48.194;16.318;2024-01-06T11:02:08;4.50;99.90
19307;DHT22;9788;48.194;16.318;2024-01-06T11:04:38;4.50;99.90
19307;DHT22;9788;48.194;16.318;2024-01-06T11:07:07;4.50;99.90
19307;DHT22;9788;48.194;16.318;2024-01-06T11:09:38;4.40;99.90
19307;DHT22;9788;48.194;16.318;2024-01-06T11:12:08;4.40;99.90
19307;DHT22;9788;48.194;16.318;2024-01-06T11:14:37;4.40;99.90
19307;DHT22;9788;48.194;16.318;2024-01-06T11:23:35;4.30;99.90
19307;DHT22;9788;48.194;16.318;2024-01-06T11:43:14;4.20;99.90
19307;DHT22;9788;48.194;16.318;2024-01-06T11:45:53;4.10;99.90
19307;DHT22;9788;48.194;16.318;2024-01-06T11:48:29;4.10;99.90
19307;DHT22;9788;48.194;16.318;2024-01-06T11:51:03;4.10;99.90
19307;DHT22;9788;48.194;16.318;2024-01-06T11:53:50;4.10;99.90
19307;DHT22;9788;48.194;16.318;2024-01-06T11:56:32;4.20;99.90
19307;DHT22;9788;48.194;16.318;2024-01-06T11:59:10;4.20;99.90
19307;DHT22;9788;48.194;16.318;2024-01-06T12:01:43;4.10;99.90
19307;DHT22;9788;48.194;16.318;2024-01-06T12:04:19;4.20;99.90
19307;DHT22;9788;48.194;16.318;2024-01-06T12:06:53;4.30;99.90
19307;DHT22;9788;48.194;16.318;2024-01-06T12:09:40;4.20;99.90
19307;DHT22;9788;48.194;16.318;2024-01-06T12:12:22;4.30;99.90
19307;DHT22;9788;48.194;16.318;2024-01-06T12:14:58;4.20;99.90
19307;DHT22;9788;48.194;16.318;2024-01-06T12:17:47;4.20;99.90
19307;DHT22;9788;48.194;16.318;2024-01-06T12:20:25;4.20;99.90
19307;DHT22;9788;48.194;16.318;2024-01-06T12:23:05;4.10;99.90
19307;DHT22;9788;48.194;16.318;2024-01-06T12:25:44;4.20;99.90
19307;DHT22;9788;48.194;16.318;2024-01-06T12:28:27;4.20;99.90
19307;DHT22;9788;48.194;16.318;2024-01-06T12:31:15;4.20;99.90
19307;DHT22;9788;48.194;16.318;2024-01-06T12:33:49;4.20;99.90
19307;DHT22;9788;48.194;16.318;2024-01-06T12:36:19;4.30;99.90
19307;DHT22;9788;48.194;16.318;2024-01-06T12:38:55;4.30;99.90
19307;DHT22;9788;48.194;16.318;2024-01-06T12:41:29;4.40;99.90
19307;DHT22;9788;48.194;16.318;2024-01-06T12:44:08;4.40;99.90
19307;DHT22;9788;48.194;16.318;2024-01-06T12:46:46;4.30;99.90
19307;DHT22;9788;48.194;16.318;2024-01-06T12:49:25;4.30;99.90
19307;DHT22;9788;48.194;16.318;2024-01-06T12:51:54;4.30;99.90
19307;DHT22;9788;48.194;16.318;2024-01-06T12:54:23;4.30;99.90
19307;DHT22;9788;48.194;16.318;2024-01-06T12:56:54;4.20;99.90
19307;DHT22;9788;48.194;16.318;2024-01-06T12:59:25;4.20;99.90
19307;DHT22;9788;48.194;16.318;2024-01-06T13:02:17;4.20;99.90
19307;DHT22;9788;48.194;16.318;2024-01-06T13:04:53;4.30;99.90
19307;DHT22;9788;48.194;16.318;2024-01-06T13:07:27;4.30;99.90
19307;DHT22;9788;48.194;16.318;2024-01-06T13:10:00;4.30;99.90
19307;DHT22;9788;48.194;16.318;2024-01-06T13:12:43;4.30;99.90
19307;DHT22;9788;48.194;16.318;2024-01-06T13:15:17;4.30;99.90
19307;DHT22;9788;48.194;16.318;2024-01-06T13:17:51;4.30;99.90
19307;DHT22;9788;48.194;16.318;2024-01-06T13:20:22;4.30;99.90
19307;DHT22;9788;48.194;16.318;2024-01-06T13:22:53;4.30;99.90
19307;DHT22;9788;48.194;16.318;2024-01-06T13:25:28;4.30;99.90
19307;DHT22;9788;48.194;16.318;2024-01-06T13:28:15;4.30;99.90
19307;DHT22;9788;48.194;16.318;2024-01-06T13:30:44;4.30;99.90
19307;DHT22;9788;48.194;16.318;2024-01-06T13:33:20;4.30;99.90
19307;DHT22;9788;48.194;16.318;2024-01-06T13:35:50;4.30;99.90
19307;DHT22;9788;48.194;16.318;2024-01-06T13:42:06;4.40;99.90
19307;DHT22;9788;48.194;16.318;2024-01-06T13:45:10;4.50;99.90
19307;DHT22;9788;48.194;16.318;2024-01-06T13:48:13;4.40;99.90
19307;DHT22;9788;48.194;16.318;2024-01-06T13:55:32;4.50;99.90
19307;DHT22;9788;48.194;16.318;2024-01-06T13:58:18;4.50;99.90
19307;DHT22;9788;48.194;16.318;2024-01-06T14:01:20;4.40;99.90
19307;DHT22;9788;48.194;16.318;2024-01-06T14:03:51;4.40;99.90
19307;DHT22;9788;48.194;16.318;2024-01-06T14:06:31;4.40;99.90
19307;DHT22;9788;48.194;16.318;2024-01-06T14:09:05;4.40;99.90
19307;DHT22;9788;48.194;16.318;2024-01-06T14:11:49;4.40;99.90
19307;DHT22;9788;48.194;16.318;2024-01-06T14:14:55;4.50;99.90
19307;DHT22;9788;48.194;16.318;2024-01-06T14:17:57;4.50;99.90
19307;DHT22;9788;48.194;16.318;2024-01-06T14:20:37;4.40;99.90
19307;DHT22;9788;48.194;16.318;2024-01-06T14:23:14;4.40;99.90
19307;DHT22;9788;48.194;16.318;2024-01-06T14:25:46;4.50;99.90
19307;DHT22;9788;48.194;16.318;2024-01-06T14:28:21;4.50;99.90
19307;DHT22;9788;48.194;16.318;2024-01-06T14:30:56;4.50;99.90
19307;DHT22;9788;48.194;16.318;2024-01-06T14:33:31;4.50;99.90
19307;DHT22;9788;48.194;16.318;2024-01-06T14:36:04;4.40;99.90
19307;DHT22;9788;48.194;16.318;2024-01-06T14:38:39;4.40;99.90
19307;DHT22;9788;48.194;16.318;2024-01-06T14:41:11;4.40;99.90
19307;DHT22;9788;48.194;16.318;2024-01-06T14:44:04;4.30;99.90
19307;DHT22;9788;48.194;16.318;2024-01-06T14:46:59;4.30;99.90
19307;DHT22;9788;48.194;16.318;2024-01-06T14:50:00;4.30;99.90
19307;DHT22;9788;48.194;16.318;2024-01-06T14:53:19;4.30;99.90
19307;DHT22;9788;48.194;16.318;2024-01-06T14:56:15;4.30;99.90
19307;DHT22;9788;48.194;16.318;2024-01-06T14:58:54;4.30;99.90
19307;DHT22;9788;48.194;16.318;2024-01-06T15:01:30;4.30;99.90
19307;DHT22;9788;48.194;16.318;2024-01-06T15:04:04;4.30;99.90
19307;DHT22;9788;48.194;16.318;2024-01-06T15:06:38;4.30;99.90
19307;DHT22;9788;48.194;16.318;2024-01-06T15:09:13;4.30;99.90
19307;DHT22;9788;48.194;16.318;2024-01-06T15:11:49;4.30;99.90
19307;DHT22;9788;48.194;16.318;2024-01-06T15:14:19;4.30;99.90
19307;DHT22;9788;48.194;16.318;2024-01-06T15:16:48;4.30;99.90
19307;DHT22;9788;48.194;16.318;2024-01-06T15:19:17;4.30;99.90
19307;DHT22;9788;48.194;16.318;2024-01-06T15:21:49;4.30;99.90
19307;DHT22;9788;48.194;16.318;2024-01-06T15:24:46;4.30;99.90
19307;DHT22;9788;48.194;16.318;2024-01-06T15:27:25;4.30;99.90
19307;DHT22;9788;48.194;16.318;2024-01-06T15:33:09;4.30;99.90
19307;DHT22;9788;48.194;16.318;2024-01-06T15:35:55;4.30;99.90
19307;DHT22;9788;48.194;16.318;2024-01-06T15:38:55;4.30;99.90
19307;DHT22;9788;48.194;16.318;2024-01-06T15:41:28;4.30;99.90
19307;DHT22;9788;48.194;16.318;2024-01-06T15:44:23;4.30;99.90
19307;DHT22;9788;48.194;16.318;2024-01-06T15:47:16;4.30;99.90
19307;DHT22;9788;48.194;16.318;2024-01-06T15:49:57;4.20;99.90
19307;DHT22;9788;48.194;16.318;2024-01-06T15:52:42;4.30;99.90
19307;DHT22;9788;48.194;16.318;2024-01-06T15:55:30;4.30;99.90
19307;DHT22;9788;48.194;16.318;2024-01-06T15:58:19;4.30;99.90
19307;DHT22;9788;48.194;16.318;2024-01-06T16:01:04;4.30;99.90
19307;DHT22;9788;48.194;16.318;2024-01-06T16:03:42;4.30;99.90
19307;DHT22;9788;48.194;16.318;2024-01-06T16:06:35;4.30;99.90
19307;DHT22;9788;48.194;16.318;2024-01-06T16:09:35;4.30;99.90
19307;DHT22;9788;48.194;16.318;2024-01-06T16:12:47;4.30;99.90
19307;DHT22;9788;48.194;16.318;2024-01-06T16:15:52;4.30;99.90
19307;DHT22;9788;48.194;16.318;2024-01-06T16:18:30;4.30;99.90
19307;DHT22;9788;48.194;16.318;2024-01-06T16:20:59;4.30;99.90
19307;DHT22;9788;48.194;16.318;2024-01-06T16:23:31;4.40;99.90
19307;DHT22;9788;48.194;16.318;2024-01-06T16:26:00;4.30;99.90
19307;DHT22;9788;48.194;16.318;2024-01-06T16:28:36;4.30;99.90
19307;DHT22;9788;48.194;16.318;2024-01-06T16:31:07;4.30;99.90
19307;DHT22;9788;48.194;16.318;2024-01-06T16:33:53;4.40;99.90
19307;DHT22;9788;48.194;16.318;2024-01-06T16:36:27;4.40;99.90
19307;DHT22;9788;48.194;16.318;2024-01-06T16:39:16;4.40;99.90
19307;DHT22;9788;48.194;16.318;2024-01-06T16:41:44;4.40;99.90
19307;DHT22;9788;48.194;16.318;2024-01-06T16:44:17;4.40;99.90
19307;DHT22;9788;48.194;16.318;2024-01-06T16:47:00;4.40;99.90
19307;DHT22;9788;48.194;16.318;2024-01-06T16:49:32;4.40;99.90
19307;DHT22;9788;48.194;16.318;2024-01-06T16:52:13;4.40;99.90
19307;DHT22;9788;48.194;16.318;2024-01-06T16:54:51;4.40;99.90
19307;DHT22;9788;48.194;16.318;2024-01-06T16:57:28;4.40;99.90
19307;DHT22;9788;48.194;16.318;2024-01-06T17:00:17;4.40;99.90